createdAt,value
2017-05-19T00:00:02.618Z,82.04
2017-05-19T00:00:14.468Z,82.52
2017-05-19T00:00:27.421Z,82.23
2017-05-19T00:00:40.828Z,82.52
2017-05-19T00:00:54.241Z,81.95
2017-05-19T00:01:07.646Z,82.32
2017-05-19T00:01:20.678Z,82.32
2017-05-19T00:01:34.114Z,82.23
2017-05-19T00:01:47.220Z,82.32
2017-05-19T00:02:00.223Z,82.23
2017-05-19T00:02:13.359Z,82.52
2017-05-19T00:02:26.491Z,82.14
2017-05-19T00:02:39.950Z,82.04
2017-05-19T00:02:54.197Z,82.42
2017-05-19T00:03:07.915Z,82.42
2017-05-19T00:03:21.418Z,82.32
2017-05-19T00:03:34.280Z,81.66
2017-05-19T00:03:47.179Z,82.04
2017-05-19T00:04:00.628Z,82.23
2017-05-19T00:04:14.088Z,82.32
2017-05-19T00:04:27.484Z,82.42
2017-05-19T00:04:40.389Z,82.23
2017-05-19T00:04:53.802Z,82.42
2017-05-19T00:05:06.907Z,82.14
2017-05-19T00:05:20.291Z,82.23
2017-05-19T00:05:33.713Z,82.42
2017-05-19T00:05:46.586Z,82.23
2017-05-19T00:06:00.036Z,82.32
2017-05-19T00:06:13.455Z,82.14
2017-05-19T00:06:26.936Z,82.14
2017-05-19T00:06:39.930Z,82.32
2017-05-19T00:06:53.482Z,82.14
2017-05-19T00:07:05.887Z,82.32
2017-05-19T00:07:19.290Z,82.14
2017-05-19T00:07:32.179Z,82.14
2017-05-19T00:07:45.603Z,82.14
2017-05-19T00:07:59.053Z,82.14
2017-05-19T00:08:11.454Z,82.04
2017-05-19T00:08:24.463Z,82.23
2017-05-19T00:08:37.356Z,82.14
2017-05-19T00:08:50.828Z,82.32
2017-05-19T00:09:04.310Z,82.9
2017-05-19T00:09:17.264Z,82.32
2017-05-19T00:09:30.272Z,82.23
2017-05-19T00:09:43.161Z,82.14
2017-05-19T00:09:56.811Z,82.32
2017-05-19T00:10:10.206Z,82.23
2017-05-19T00:10:22.014Z,82.32
2017-05-19T00:10:34.882Z,82.23
2017-05-19T00:10:48.230Z,82.23
2017-05-19T00:11:01.622Z,82.32
2017-05-19T00:11:14.025Z,82.52
2017-05-19T00:11:27.047Z,82.04
2017-05-19T00:11:40.474Z,82.62
2017-05-19T00:11:53.897Z,83.29
2017-05-19T00:12:07.360Z,82.9
2017-05-19T00:12:20.712Z,82.71
2017-05-19T00:12:33.587Z,82.9
2017-05-19T00:12:47.005Z,83
2017-05-19T00:13:00.480Z,82.9
2017-05-19T00:13:13.427Z,82.9
2017-05-19T00:13:26.356Z,83
2017-05-19T00:13:39.887Z,82.9
2017-05-19T00:13:53.288Z,83.09
2017-05-19T00:14:06.790Z,83
2017-05-19T00:14:20.253Z,83
2017-05-19T00:14:33.689Z,82.9
2017-05-19T00:14:47.022Z,83.29
2017-05-19T00:15:00.404Z,83
2017-05-19T00:15:12.763Z,83
2017-05-19T00:15:25.657Z,83.19
2017-05-19T00:15:39.121Z,83.09
2017-05-19T00:15:51.489Z,83
2017-05-19T00:16:05.099Z,83.09
2017-05-19T00:16:17.446Z,83.09
2017-05-19T00:16:30.412Z,83
2017-05-19T00:16:43.509Z,82.81
2017-05-19T00:16:56.940Z,82.81
2017-05-19T00:17:09.330Z,82.52
2017-05-19T00:17:22.724Z,82.71
2017-05-19T00:17:35.608Z,82.81
2017-05-19T00:17:48.991Z,83.04
2017-05-19T00:18:02.439Z,82.94
2017-05-19T00:18:14.866Z,83.04
2017-05-19T00:18:28.263Z,83.23
2017-05-19T00:18:40.686Z,83.14
2017-05-19T00:18:54.096Z,83.19
2017-05-19T00:19:06.970Z,83.71
2017-05-19T00:19:20.328Z,84
2017-05-19T00:19:32.135Z,83.91
2017-05-19T00:19:45.539Z,83.76
2017-05-19T00:19:59.446Z,84.05
2017-05-19T00:20:12.320Z,83.86
2017-05-19T00:20:25.216Z,83.86
2017-05-19T00:20:38.736Z,83.86
2017-05-19T00:20:51.638Z,83.86
2017-05-19T00:21:05.092Z,83.67
2017-05-19T00:21:16.943Z,83.67
2017-05-19T00:21:30.379Z,83.95
2017-05-19T00:21:43.312Z,84.15
2017-05-19T00:21:56.705Z,84.05
2017-05-19T00:22:10.066Z,83.76
2017-05-19T00:22:21.925Z,84.05
2017-05-19T00:22:34.301Z,83.86
2017-05-19T00:22:48.666Z,84.05
2017-05-19T00:23:02.103Z,83.86
2017-05-19T00:23:15.019Z,83.86
2017-05-19T00:23:27.932Z,84.05
2017-05-19T00:23:41.324Z,83.38
2017-05-19T00:23:54.785Z,83.86
2017-05-19T00:24:08.240Z,83.86
2017-05-19T00:24:20.705Z,83.67
2017-05-19T00:24:33.544Z,83.86
2017-05-19T00:24:46.937Z,83.19
2017-05-19T00:25:00.337Z,83.38
2017-05-19T00:25:13.243Z,83.58
2017-05-19T00:25:25.631Z,83.86
2017-05-19T00:25:39.031Z,83.38
2017-05-19T00:25:52.442Z,83.38
2017-05-19T00:26:05.341Z,83.58
2017-05-19T00:26:17.762Z,83.48
2017-05-19T00:26:30.447Z,83.58
2017-05-19T00:26:43.922Z,83.86
2017-05-19T00:26:56.765Z,83.38
2017-05-19T00:27:09.374Z,83.48
2017-05-19T00:27:22.268Z,83.76
2017-05-19T00:27:35.692Z,83.58
2017-05-19T00:27:48.624Z,83.38
2017-05-19T00:28:02.035Z,83.29
2017-05-19T00:28:13.842Z,83.86
2017-05-19T00:28:26.730Z,83.38
2017-05-19T00:28:40.147Z,83.67
2017-05-19T00:28:53.585Z,83.29
2017-05-19T00:29:06.483Z,83.58
2017-05-19T00:29:19.367Z,83.86
2017-05-19T00:29:32.850Z,83.86
2017-05-19T00:29:45.711Z,83.58
2017-05-19T00:29:59.152Z,83.86
2017-05-19T00:30:12.607Z,83.29
2017-05-19T00:30:26.055Z,83.48
2017-05-19T00:30:39.575Z,83.19
2017-05-19T00:30:53.108Z,83.58
2017-05-19T00:31:51.202Z,83.19
2017-05-19T00:32:04.652Z,83.19
2017-05-19T00:32:17.039Z,83.19
2017-05-19T00:32:29.982Z,83.86
2017-05-19T00:32:43.394Z,83.76
2017-05-19T00:32:56.843Z,83.95
2017-05-19T00:33:10.266Z,83.67
2017-05-19T00:33:23.103Z,83.86
2017-05-19T00:33:36.020Z,84.05
2017-05-19T00:33:48.897Z,83.67
2017-05-19T00:34:02.274Z,83.86
2017-05-19T00:34:15.148Z,83.76
2017-05-19T00:34:27.590Z,83.86
2017-05-19T00:34:40.967Z,83.95
2017-05-19T00:34:54.406Z,83.86
2017-05-19T00:35:07.791Z,84.05
2017-05-19T00:35:20.182Z,83.09
2017-05-19T00:35:33.105Z,83.76
2017-05-19T00:35:46.576Z,83.67
2017-05-19T00:36:00.034Z,83.86
2017-05-19T00:36:12.410Z,83.86
2017-05-19T00:36:25.327Z,83.19
2017-05-19T00:36:39.243Z,83.19
2017-05-19T00:36:52.672Z,83.29
2017-05-19T00:37:06.084Z,83.48
2017-05-19T00:37:18.975Z,83.86
2017-05-19T00:37:32.109Z,83.67
2017-05-19T00:37:45.515Z,84.05
2017-05-19T00:37:58.910Z,83.86
2017-05-19T00:38:11.826Z,83.48
2017-05-19T00:38:25.190Z,83.91
2017-05-19T00:38:38.570Z,83.76
2017-05-19T00:38:51.965Z,84.48
2017-05-19T00:39:05.298Z,84.48
2017-05-19T00:39:17.169Z,84.86
2017-05-19T00:39:30.625Z,84.95
2017-05-19T00:39:44.086Z,84.86
2017-05-19T00:39:57.491Z,84.77
2017-05-19T00:40:10.406Z,84.86
2017-05-19T00:40:23.334Z,84.77
2017-05-19T00:40:36.724Z,85.25
2017-05-19T00:40:50.149Z,85.15
2017-05-19T00:41:03.657Z,85.15
2017-05-19T00:41:17.400Z,85.05
2017-05-19T00:41:30.748Z,84.77
2017-05-19T00:41:44.269Z,85.25
2017-05-19T00:41:57.686Z,84.77
2017-05-19T00:42:11.148Z,84.77
2017-05-19T00:42:24.065Z,84.72
2017-05-19T00:42:37.516Z,84.67
2017-05-19T00:42:50.424Z,84.63
2017-05-19T00:43:03.350Z,84.63
2017-05-19T00:43:16.719Z,84.72
2017-05-19T00:43:29.603Z,85.3
2017-05-19T00:43:42.456Z,85.11
2017-05-19T00:43:53.778Z,84.82
2017-05-19T00:44:07.418Z,85.21
2017-05-19T00:44:19.776Z,84.86
2017-05-19T00:45:10.117Z,85.3
2017-05-19T00:45:21.930Z,85.21
2017-05-19T00:45:35.374Z,85.21
2017-05-19T00:45:48.789Z,85.05
2017-05-19T00:46:02.264Z,85.11
2017-05-19T00:46:15.090Z,85.11
2017-05-19T00:46:27.480Z,85.49
2017-05-19T00:46:40.942Z,85.01
2017-05-19T00:46:54.336Z,85.11
2017-05-19T00:47:07.742Z,85.3
2017-05-19T00:47:20.643Z,85.01
2017-05-19T00:47:34.050Z,85.39
2017-05-19T00:47:47.489Z,85.3
2017-05-19T00:48:00.889Z,85.01
2017-05-19T00:48:14.242Z,85.11
2017-05-19T00:48:27.143Z,85.11
2017-05-19T00:48:40.569Z,85.01
2017-05-19T00:48:53.455Z,85.11
2017-05-19T00:49:06.892Z,85.11
2017-05-19T00:49:20.372Z,85.21
2017-05-19T00:49:33.259Z,85.21
2017-05-19T00:49:46.683Z,85.11
2017-05-19T00:50:00.099Z,85.21
2017-05-19T00:50:13.025Z,85.11
2017-05-19T00:50:26.461Z,85.01
2017-05-19T00:50:39.895Z,85.11
2017-05-19T00:50:53.319Z,85.3
2017-05-19T00:51:06.681Z,84.82
2017-05-19T00:51:19.519Z,84.91
2017-05-19T00:51:32.909Z,85.01
2017-05-19T00:51:46.264Z,85.21
2017-05-19T00:51:59.746Z,84.91
2017-05-19T00:52:12.133Z,85.21
2017-05-19T00:52:25.522Z,85.21
2017-05-19T00:52:38.395Z,84.72
2017-05-19T00:52:51.292Z,84.82
2017-05-19T00:53:04.760Z,84.72
2017-05-19T00:53:17.648Z,84.72
2017-05-19T00:53:30.547Z,84.82
2017-05-19T00:53:43.881Z,84.34
2017-05-19T00:53:57.310Z,84.63
2017-05-19T00:54:10.202Z,84.34
2017-05-19T00:54:23.057Z,84.91
2017-05-19T00:54:35.965Z,84.72
2017-05-19T00:54:48.872Z,85.11
2017-05-19T00:55:02.361Z,84.91
2017-05-19T00:55:15.253Z,84.82
2017-05-19T00:55:28.674Z,84.91
2017-05-19T00:55:42.048Z,84.63
2017-05-19T00:55:54.963Z,84.72
2017-05-19T00:56:07.938Z,84.63
2017-05-19T00:56:20.838Z,84.72
2017-05-19T00:56:34.341Z,84.91
2017-05-19T00:56:47.775Z,84.63
2017-05-19T00:57:01.479Z,84.72
2017-05-19T00:57:14.900Z,84.53
2017-05-19T00:57:28.408Z,84.53
2017-05-19T00:57:41.824Z,84.44
2017-05-19T00:57:54.234Z,84.72
2017-05-19T00:58:07.644Z,84.34
2017-05-19T00:58:20.002Z,84.63
2017-05-19T00:58:33.363Z,84.82
2017-05-19T00:58:46.207Z,84.91
2017-05-19T00:58:59.678Z,84.91
2017-05-19T00:59:12.591Z,85.21
2017-05-19T00:59:25.533Z,84.72
2017-05-19T00:59:38.970Z,84.72
2017-05-19T00:59:52.411Z,85.01
2017-05-19T01:00:05.286Z,84.53
2017-05-19T01:00:18.219Z,84.72
2017-05-19T01:00:30.624Z,84.82
2017-05-19T01:00:44.352Z,84.72
2017-05-19T01:00:57.760Z,84.63
2017-05-19T01:01:10.632Z,84.63
2017-05-19T01:01:25.128Z,84.82
2017-05-19T01:01:38.757Z,84.34
2017-05-19T01:01:52.370Z,84.34
2017-05-19T01:02:05.190Z,84.72
2017-05-19T01:02:16.029Z,84.72
2017-05-19T01:02:29.047Z,84.82
2017-05-19T01:02:41.932Z,84.63
2017-05-19T01:02:54.875Z,84.82
2017-05-19T01:03:08.385Z,84.82
2017-05-19T01:03:21.907Z,84.63
2017-05-19T01:03:35.511Z,84.82
2017-05-19T01:03:48.975Z,85.21
2017-05-19T01:04:02.489Z,85.11
2017-05-19T01:04:15.446Z,84.86
2017-05-19T01:04:28.966Z,85.15
2017-05-19T01:04:42.503Z,85.15
2017-05-19T01:04:55.914Z,85.15
2017-05-19T01:05:09.391Z,85.39
2017-05-19T01:05:22.876Z,85.63
2017-05-19T01:05:34.757Z,86.01
2017-05-19T01:05:48.227Z,85.58
2017-05-19T01:06:01.605Z,85.72
2017-05-19T01:06:13.949Z,85.88
2017-05-19T01:06:26.877Z,85.88
2017-05-19T01:06:40.925Z,85.78
2017-05-19T01:06:54.353Z,86.11
2017-05-19T01:07:07.269Z,85.78
2017-05-19T01:07:19.679Z,85.78
2017-05-19T01:07:33.115Z,85.82
2017-05-19T01:07:46.065Z,86.01
2017-05-19T01:07:59.712Z,85.44
2017-05-19T01:08:12.009Z,85.34
2017-05-19T01:08:24.388Z,85.44
2017-05-19T01:08:37.833Z,85.92
2017-05-19T01:08:50.798Z,85.53
2017-05-19T01:09:04.227Z,85.39
2017-05-19T01:09:17.084Z,85.44
2017-05-19T01:09:30.520Z,85.72
2017-05-19T01:09:43.935Z,86.01
2017-05-19T01:09:57.402Z,86.49
2017-05-19T01:10:10.376Z,86.58
2017-05-19T01:10:23.283Z,86.4
2017-05-19T01:10:37.328Z,86.78
2017-05-19T01:10:50.227Z,86.74
2017-05-19T01:11:03.736Z,86.49
2017-05-19T01:11:17.209Z,86.58
2017-05-19T01:11:30.644Z,86.68
2017-05-19T01:11:44.086Z,86.58
2017-05-19T01:11:57.749Z,86.4
2017-05-19T01:12:10.674Z,86.49
2017-05-19T01:12:23.029Z,86.58
2017-05-19T01:12:35.912Z,86.58
2017-05-19T01:12:49.432Z,86.78
2017-05-19T01:13:04.141Z,86.4
2017-05-19T01:13:17.299Z,86.68
2017-05-19T01:13:30.707Z,86.68
2017-05-19T01:13:44.158Z,86.45
2017-05-19T01:13:57.572Z,86.78
2017-05-19T01:14:10.506Z,86.54
2017-05-19T01:14:23.459Z,86.45
2017-05-19T01:14:36.433Z,86.45
2017-05-19T01:14:49.527Z,86.35
2017-05-19T01:15:03.067Z,86.45
2017-05-19T01:15:16.680Z,86.54
2017-05-19T01:15:30.175Z,86.54
2017-05-19T01:15:43.187Z,86.45
2017-05-19T01:15:56.623Z,86.54
2017-05-19T01:16:09.494Z,86.35
2017-05-19T01:16:21.955Z,86.16
2017-05-19T01:16:34.888Z,86.45
2017-05-19T01:16:47.801Z,86.74
2017-05-19T01:17:01.254Z,86.74
2017-05-19T01:17:13.675Z,86.54
2017-05-19T01:17:26.587Z,86.64
2017-05-19T01:17:39.992Z,86.25
2017-05-19T01:17:52.884Z,86.35
2017-05-19T01:18:06.328Z,86.45
2017-05-19T01:18:19.755Z,86.45
2017-05-19T01:18:32.776Z,86.83
2017-05-19T01:18:45.745Z,86.54
2017-05-19T01:18:59.186Z,86.54
2017-05-19T01:19:12.131Z,86.07
2017-05-19T01:19:25.125Z,86.35
2017-05-19T01:19:38.052Z,86.35
2017-05-19T01:19:51.476Z,86.83
2017-05-19T01:20:04.953Z,86.54
2017-05-19T01:20:18.328Z,86.64
2017-05-19T01:20:31.722Z,86.64
2017-05-19T01:20:44.630Z,86.45
2017-05-19T01:20:59.459Z,86.74
2017-05-19T01:21:13.002Z,86.35
2017-05-19T01:21:26.553Z,86.25
2017-05-19T01:21:39.994Z,86.16
2017-05-19T01:21:53.932Z,86.74
2017-05-19T01:22:07.464Z,86.35
2017-05-19T01:22:20.936Z,86.25
2017-05-19T01:22:34.448Z,85.97
2017-05-19T01:22:47.361Z,86.35
2017-05-19T01:23:00.884Z,86.07
2017-05-19T01:23:13.782Z,86.16
2017-05-19T01:23:27.997Z,86.64
2017-05-19T01:23:42.196Z,86.25
2017-05-19T01:23:56.326Z,86.16
2017-05-19T01:24:10.531Z,86.64
2017-05-19T01:24:24.718Z,86.54
2017-05-19T01:24:38.247Z,86.54
2017-05-19T01:24:51.960Z,86.64
2017-05-19T01:25:05.518Z,86.25
2017-05-19T01:25:18.962Z,85.97
2017-05-19T01:25:32.507Z,86.83
2017-05-19T01:25:45.962Z,86.35
2017-05-19T01:25:59.405Z,86.64
2017-05-19T01:26:12.302Z,86.64
2017-05-19T01:26:25.750Z,86.07
2017-05-19T01:26:40.669Z,86.54
2017-05-19T01:28:46.454Z,86.74
2017-05-19T01:28:59.942Z,86.54
2017-05-19T01:29:13.374Z,86.35
2017-05-19T01:29:26.167Z,86.54
2017-05-19T01:30:20.699Z,86.54
2017-05-19T01:30:58.646Z,87.02
2017-05-19T01:31:17.054Z,87.02
2017-05-19T01:31:56.016Z,86.83
2017-05-19T01:32:09.440Z,87.02
2017-05-19T01:32:22.335Z,87.02
2017-05-19T01:32:35.789Z,86.93
2017-05-19T01:32:48.743Z,86.88
2017-05-19T01:33:05.233Z,86.83
2017-05-19T01:33:18.115Z,87.02
2017-05-19T01:33:30.476Z,86.74
2017-05-19T01:33:45.051Z,87.31
2017-05-19T01:34:06.174Z,87.31
2017-05-19T01:34:19.553Z,87.45
2017-05-19T01:34:31.933Z,87.21
2017-05-19T01:34:44.889Z,87.41
2017-05-19T01:34:58.350Z,87.31
2017-05-19T01:35:11.803Z,87.02
2017-05-19T01:35:25.412Z,87.02
2017-05-19T01:35:38.298Z,86.93
2017-05-19T01:35:51.260Z,87.02
2017-05-19T01:36:04.658Z,87.07
2017-05-19T01:36:17.534Z,87.02
2017-05-19T01:36:30.991Z,86.83
2017-05-19T01:36:44.390Z,87.26
2017-05-19T01:36:57.834Z,86.93
2017-05-19T01:37:10.222Z,87.02
2017-05-19T01:37:23.083Z,86.97
2017-05-19T01:37:36.562Z,87.7
2017-05-19T01:37:49.999Z,88.37
2017-05-19T01:38:03.362Z,88.27
2017-05-19T01:38:16.260Z,88.27
2017-05-19T01:38:28.657Z,88.37
2017-05-19T01:38:42.318Z,88.27
2017-05-19T01:38:55.249Z,87.88
2017-05-19T01:39:08.650Z,88.17
2017-05-19T01:39:21.537Z,88.46
2017-05-19T01:39:34.990Z,87.79
2017-05-19T01:39:48.471Z,87.79
2017-05-19T01:40:01.872Z,87.98
2017-05-19T01:40:14.799Z,87.41
2017-05-19T01:40:27.668Z,87.6
2017-05-19T01:40:41.090Z,87.98
2017-05-19T01:40:54.566Z,87.6
2017-05-19T01:41:07.941Z,87.6
2017-05-19T01:41:20.251Z,87.6
2017-05-19T01:41:33.667Z,87.7
2017-05-19T01:41:47.148Z,87.7
2017-05-19T01:42:00.572Z,87.79
2017-05-19T01:42:13.989Z,87.79
2017-05-19T01:42:26.315Z,87.79
2017-05-19T01:42:39.180Z,87.7
2017-05-19T01:42:52.636Z,87.5
2017-05-19T01:43:05.060Z,87.31
2017-05-19T01:43:18.642Z,87.41
2017-05-19T01:43:31.554Z,87.21
2017-05-19T01:43:45.158Z,87.21
2017-05-19T01:43:58.103Z,87.31
2017-05-19T01:44:10.470Z,87.31
2017-05-19T01:44:23.897Z,87.41
2017-05-19T01:44:36.753Z,87.41
2017-05-19T01:44:50.178Z,87.41
2017-05-19T01:45:03.602Z,87.5
2017-05-19T01:45:16.511Z,87.6
2017-05-19T01:45:29.413Z,87.41
2017-05-19T01:45:42.862Z,87.6
2017-05-19T01:45:56.334Z,87.5
2017-05-19T01:46:09.288Z,87.41
2017-05-19T01:46:23.404Z,87.79
2017-05-19T01:46:36.320Z,87.79
2017-05-19T01:46:49.204Z,87.79
2017-05-19T01:47:02.725Z,87.7
2017-05-19T01:47:15.099Z,87.88
2017-05-19T01:47:27.993Z,87.6
2017-05-19T01:47:40.983Z,87.98
2017-05-19T01:47:54.400Z,87.79
2017-05-19T01:48:07.902Z,87.88
2017-05-19T01:48:20.816Z,87.79
2017-05-19T01:48:33.196Z,87.7
2017-05-19T01:48:45.603Z,87.6
2017-05-19T01:48:59.079Z,87.79
2017-05-19T01:49:11.949Z,87.6
2017-05-19T01:49:24.863Z,87.79
2017-05-19T01:49:37.354Z,87.6
2017-05-19T01:49:50.183Z,87.7
2017-05-19T01:50:03.560Z,87.7
2017-05-19T01:50:16.520Z,87.88
2017-05-19T01:50:29.986Z,87.7
2017-05-19T01:50:43.381Z,87.7
2017-05-19T01:50:56.861Z,87.41
2017-05-19T01:51:09.243Z,87.31
2017-05-19T01:51:21.642Z,87.21
2017-05-19T01:51:34.514Z,87.7
2017-05-19T01:51:47.434Z,87.31
2017-05-19T01:52:00.838Z,87.31
2017-05-19T01:52:13.771Z,87.31
2017-05-19T01:52:26.713Z,87.21
2017-05-19T01:52:40.086Z,87.6
2017-05-19T01:52:53.477Z,87.5
2017-05-19T01:53:06.398Z,87.7
2017-05-19T01:53:19.870Z,87.5
2017-05-19T01:53:33.352Z,87.7
2017-05-19T01:53:46.986Z,87.79
2017-05-19T01:54:00.427Z,87.5
2017-05-19T01:54:13.370Z,87.88
2017-05-19T01:54:26.800Z,87.7
2017-05-19T01:54:40.198Z,87.88
2017-05-19T01:54:53.611Z,87.79
2017-05-19T01:55:07.164Z,87.98
2017-05-19T01:55:20.871Z,87.79
2017-05-19T01:55:34.340Z,87.79
2017-05-19T01:55:47.799Z,87.7
2017-05-19T01:56:01.260Z,87.7
2017-05-19T01:56:14.714Z,87.41
2017-05-19T01:56:28.232Z,87.88
2017-05-19T01:56:41.615Z,87.88
2017-05-19T01:56:55.040Z,87.79
2017-05-19T01:57:08.745Z,87.6
2017-05-19T01:57:21.672Z,87.7
2017-05-19T01:57:35.073Z,87.88
2017-05-19T01:57:48.517Z,87.79
2017-05-19T01:58:02.481Z,87.79
2017-05-19T01:58:15.961Z,87.79
2017-05-19T01:58:29.428Z,87.88
2017-05-19T01:58:42.801Z,88.46
2017-05-19T01:58:56.456Z,88.27
2017-05-19T01:59:09.890Z,88.27
2017-05-19T01:59:23.338Z,88.37
2017-05-19T01:59:36.707Z,88.46
2017-05-19T01:59:49.085Z,88.37
2017-05-19T02:00:02.506Z,87.98
2017-05-19T02:00:14.959Z,88.17
2017-05-19T02:00:27.988Z,88.08
2017-05-19T02:00:41.441Z,88.17
2017-05-19T02:00:54.860Z,88.08
2017-05-19T02:01:08.316Z,88.17
2017-05-19T02:01:21.218Z,87.98
2017-05-19T02:01:33.571Z,87.98
2017-05-19T02:01:47.025Z,87.88
2017-05-19T02:02:00.466Z,88.08
2017-05-19T02:02:13.951Z,87.88
2017-05-19T02:02:30.026Z,88.17
2017-05-19T02:02:42.981Z,88.27
2017-05-19T02:02:56.420Z,88.08
2017-05-19T02:03:09.917Z,88.17
2017-05-19T02:03:23.341Z,88.17
2017-05-19T02:03:36.705Z,88.37
2017-05-19T02:03:50.083Z,87.98
2017-05-19T02:04:03.308Z,87.98
2017-05-19T02:04:16.714Z,88.46
2017-05-19T02:04:30.210Z,88.37
2017-05-19T02:04:43.794Z,88.37
2017-05-19T02:04:57.174Z,88.46
2017-05-19T02:05:10.531Z,87.7
2017-05-19T02:05:23.400Z,88.46
2017-05-19T02:05:37.706Z,87.98
2017-05-19T02:05:51.125Z,87.7
2017-05-19T02:06:04.743Z,87.98
2017-05-19T02:06:18.295Z,87.79
2017-05-19T02:06:31.754Z,88.46
2017-05-19T02:06:45.200Z,88.17
2017-05-19T02:06:59.389Z,88.46
2017-05-19T02:07:12.872Z,87.98
2017-05-19T02:07:28.490Z,87.98
2017-05-19T02:07:41.936Z,87.79
2017-05-19T02:07:55.426Z,87.79
2017-05-19T02:08:09.315Z,87.88
2017-05-19T02:08:22.770Z,87.7
2017-05-19T02:08:36.261Z,87.5
2017-05-19T02:08:50.498Z,87.79
2017-05-19T02:09:03.975Z,88.27
2017-05-19T02:09:16.916Z,87.88
2017-05-19T02:09:30.453Z,87.79
2017-05-19T02:09:43.324Z,87.98
2017-05-19T02:09:56.766Z,88.37
2017-05-19T02:10:10.198Z,87.7
2017-05-19T02:10:23.796Z,87.5
2017-05-19T02:10:37.341Z,87.41
2017-05-19T02:10:50.793Z,87.6
2017-05-19T02:11:03.738Z,87.7
2017-05-19T02:11:16.652Z,87.79
2017-05-19T02:11:29.575Z,87.6
2017-05-19T02:11:42.952Z,87.5
2017-05-19T02:11:56.453Z,87.88
2017-05-19T02:12:08.806Z,87.7
2017-05-19T02:12:22.335Z,87.98
2017-05-19T02:12:35.760Z,87.79
2017-05-19T02:12:49.146Z,87.88
2017-05-19T02:13:02.603Z,87.88
2017-05-19T02:13:15.469Z,87.7
2017-05-19T02:13:28.882Z,87.88
2017-05-19T02:13:42.806Z,87.7
2017-05-19T02:13:56.430Z,87.79
2017-05-19T02:14:09.359Z,87.88
2017-05-19T02:14:21.761Z,87.88
2017-05-19T02:14:34.147Z,87.79
2017-05-19T02:14:47.565Z,87.98
2017-05-19T02:15:00.423Z,87.31
2017-05-19T02:15:13.820Z,87.5
2017-05-19T02:15:26.715Z,87.31
2017-05-19T02:15:40.109Z,87.31
2017-05-19T02:15:53.559Z,87.31
2017-05-19T02:16:07.013Z,87.41
2017-05-19T02:16:20.009Z,87.02
2017-05-19T02:16:32.871Z,87.6
2017-05-19T02:16:46.294Z,87.21
2017-05-19T02:16:59.779Z,87.41
2017-05-19T02:17:13.196Z,87.5
2017-05-19T02:17:26.082Z,87.41
2017-05-19T02:17:39.433Z,86.83
2017-05-19T02:17:52.869Z,87.12
2017-05-19T02:18:06.257Z,87.02
2017-05-19T02:18:17.600Z,87.02
2017-05-19T02:18:31.010Z,87.12
2017-05-19T02:18:44.425Z,87.12
2017-05-19T02:18:57.815Z,87.02
2017-05-19T02:19:10.742Z,87.12
2017-05-19T02:19:23.173Z,86.93
2017-05-19T02:19:36.623Z,87.02
2017-05-19T02:19:50.079Z,87.02
2017-05-19T02:20:03.517Z,86.93
2017-05-19T02:20:15.857Z,86.83
2017-05-19T02:20:29.241Z,86.54
2017-05-19T02:20:42.763Z,86.54
2017-05-19T02:20:56.223Z,86.83
2017-05-19T02:21:09.100Z,87.12
2017-05-19T02:21:22.550Z,87.02
2017-05-19T02:21:36.044Z,86.83
2017-05-19T02:21:49.481Z,86.54
2017-05-19T02:22:02.883Z,86.54
2017-05-19T02:22:16.358Z,86.64
2017-05-19T02:22:29.791Z,86.54
2017-05-19T02:22:43.230Z,86.74
2017-05-19T02:22:56.585Z,86.54
2017-05-19T02:23:10.043Z,86.64
2017-05-19T02:23:22.970Z,86.45
2017-05-19T02:23:36.412Z,86.54
2017-05-19T02:23:49.807Z,86.54
2017-05-19T02:24:03.422Z,86.54
2017-05-19T02:24:16.284Z,86.45
2017-05-19T02:24:29.138Z,86.16
2017-05-19T02:24:42.616Z,86.74
2017-05-19T02:24:55.988Z,86.64
2017-05-19T02:25:08.847Z,85.97
2017-05-19T02:25:21.730Z,86.45
2017-05-19T02:25:34.573Z,86.35
2017-05-19T02:25:47.923Z,86.25
2017-05-19T02:26:01.309Z,86.16
2017-05-19T02:26:14.237Z,86.25
2017-05-19T02:26:27.623Z,86.25
2017-05-19T02:26:40.350Z,86.35
2017-05-19T02:26:53.780Z,86.45
2017-05-19T02:27:06.187Z,86.25
2017-05-19T02:27:18.522Z,86.54
2017-05-19T02:27:31.966Z,85.88
2017-05-19T02:27:45.432Z,86.31
2017-05-19T02:27:58.933Z,86.25
2017-05-19T02:28:11.302Z,85.68
2017-05-19T02:28:24.644Z,85.93
2017-05-19T02:28:38.010Z,85.97
2017-05-19T02:28:50.944Z,85.88
2017-05-19T02:29:04.509Z,85.74
2017-05-19T02:29:16.914Z,86.02
2017-05-19T02:29:29.209Z,86.21
2017-05-19T02:29:42.666Z,85.64
2017-05-19T02:29:55.706Z,85.83
2017-05-19T02:30:09.139Z,85.83
2017-05-19T02:30:22.522Z,85.54
2017-05-19T02:30:35.451Z,85.78
2017-05-19T02:30:48.899Z,85.83
2017-05-19T02:31:02.295Z,85.54
2017-05-19T02:31:15.158Z,85.45
2017-05-19T02:31:28.009Z,85.83
2017-05-19T02:31:41.470Z,85.35
2017-05-19T02:31:54.918Z,85.35
2017-05-19T02:32:08.297Z,84.97
2017-05-19T02:32:21.187Z,85.25
2017-05-19T02:32:34.533Z,85.06
2017-05-19T02:32:47.941Z,85.25
2017-05-19T02:33:01.361Z,85.25
2017-05-19T02:33:14.234Z,85.06
2017-05-19T02:33:27.063Z,84.88
2017-05-19T02:33:39.953Z,84.58
2017-05-19T02:33:53.435Z,84.68
2017-05-19T02:34:06.866Z,84.49
2017-05-19T02:34:18.630Z,84.58
2017-05-19T02:34:31.563Z,84.68
2017-05-19T02:34:44.939Z,84.68
2017-05-19T02:34:58.295Z,84.49
2017-05-19T02:35:11.700Z,84.97
2017-05-19T02:35:25.090Z,84.78
2017-05-19T02:35:38.004Z,84.78
2017-05-19T02:35:51.406Z,84.39
2017-05-19T02:36:04.949Z,84.2
2017-05-19T02:36:17.799Z,84.11
2017-05-19T02:36:31.218Z,83.63
2017-05-19T02:36:44.635Z,83.72
2017-05-19T02:36:58.070Z,83.53
2017-05-19T02:37:10.389Z,83.72
2017-05-19T02:37:23.256Z,83.72
2017-05-19T02:37:36.653Z,83.72
2017-05-19T02:37:50.080Z,84.2
2017-05-19T02:38:03.570Z,83.72
2017-05-19T02:38:15.939Z,83.72
2017-05-19T02:38:29.341Z,83.92
2017-05-19T02:38:42.246Z,83.92
2017-05-19T02:38:55.680Z,83.82
2017-05-19T02:39:08.564Z,83.72
2017-05-19T02:39:20.446Z,83.63
2017-05-19T02:39:33.855Z,83.63
2017-05-19T02:39:47.398Z,83.63
2017-05-19T02:40:00.378Z,83.72
2017-05-19T02:40:13.267Z,83.72
2017-05-19T02:40:25.620Z,83.72
2017-05-19T02:40:38.488Z,83.53
2017-05-19T02:40:51.889Z,83.82
2017-05-19T02:41:05.290Z,83.53
2017-05-19T02:41:18.680Z,83.92
2017-05-19T02:41:32.094Z,83.92
2017-05-19T02:41:45.522Z,83.05
2017-05-19T02:41:58.903Z,82.96
2017-05-19T02:42:11.782Z,83.05
2017-05-19T02:42:25.201Z,82.96
2017-05-19T02:42:38.613Z,83.15
2017-05-19T02:42:52.003Z,82.86
2017-05-19T02:43:04.449Z,83.25
2017-05-19T02:43:17.300Z,83.05
2017-05-19T02:43:30.663Z,82.96
2017-05-19T02:43:44.074Z,82.76
2017-05-19T02:43:56.907Z,82.76
2017-05-19T02:44:10.527Z,82.38
2017-05-19T02:44:23.559Z,82.57
2017-05-19T02:44:36.528Z,82.38
2017-05-19T02:44:49.894Z,82
2017-05-19T02:45:03.265Z,82.48
2017-05-19T02:45:15.626Z,82.76
2017-05-19T02:45:29.098Z,82.57
2017-05-19T02:45:42.538Z,82.57
2017-05-19T02:45:55.933Z,82.86
2017-05-19T02:46:09.343Z,82.57
2017-05-19T02:46:22.772Z,82.29
2017-05-19T02:46:35.715Z,82.09
2017-05-19T02:46:49.136Z,82.09
2017-05-19T02:47:02.517Z,82.09
2017-05-19T02:47:15.409Z,82.29
2017-05-19T02:47:28.802Z,82.19
2017-05-19T02:47:41.705Z,82.09
2017-05-19T02:47:55.174Z,82.09
2017-05-19T02:48:08.579Z,82.19
2017-05-19T02:48:22.009Z,82
2017-05-19T02:48:35.419Z,82.09
2017-05-19T02:48:54.129Z,81.71
2017-05-19T02:49:18.631Z,81.62
2017-05-19T02:49:31.477Z,81.62
2017-05-19T02:49:45.440Z,81.71
2017-05-19T02:49:58.914Z,81.71
2017-05-19T02:50:11.830Z,81.71
2017-05-19T02:50:24.723Z,82
2017-05-19T02:50:37.696Z,82.29
2017-05-19T02:50:51.123Z,82.19
2017-05-19T02:51:04.566Z,81.71
2017-05-19T02:51:17.481Z,81.71
2017-05-19T02:51:30.444Z,81.71
2017-05-19T02:51:43.868Z,81.62
2017-05-19T02:51:56.713Z,81.62
2017-05-19T02:52:10.136Z,81.62
2017-05-19T02:52:23.518Z,82
2017-05-19T02:52:36.433Z,82
2017-05-19T02:52:49.805Z,81.9
2017-05-19T02:53:03.167Z,81.71
2017-05-19T02:53:16.535Z,81.9
2017-05-19T02:53:29.455Z,82.09
2017-05-19T02:53:41.844Z,81.71
2017-05-19T02:53:55.328Z,81.81
2017-05-19T02:54:08.768Z,81.81
2017-05-19T02:54:21.667Z,81.52
2017-05-19T02:54:34.093Z,81.81
2017-05-19T02:54:47.256Z,81.43
2017-05-19T02:55:00.672Z,81.52
2017-05-19T02:55:12.501Z,81.52
2017-05-19T02:55:25.314Z,81.43
2017-05-19T02:55:38.690Z,81.33
2017-05-19T02:55:52.070Z,81.33
2017-05-19T02:56:05.468Z,81.33